Baldwin Place, New York
Current Conditions -  °F | °C
As of 2:11 PM on Friday 24 Oct 2014 (Local Time) from KDXR Reporting Station
Overcast Overcast  
Wind Chill: 54°   Ceiling: 2900
Heat Index: 54°   Visibility: 10mi
Dew Point: 41°   Wind: 16mph
Humidity: 62%   Direction: 330°NNW
Pressure: 29.78"   Gusts: 23mph
Location:  41.35°N, 73.76°W
Report Text: KDXR 241811Z 33014G20KT 10SM BKN029 OVC034 12/05 A2978 RMK AO2 T01220050
Loading
Personal Weather Stations






























Interactive Weather Map
Tropical Storm Tracking
New forecast layout! Learn more

10-Day Weather Forecast

Advertisements
Track Severe Weather on mobile